sensor_id;sensor_type;location;lat;lon;timestamp;P1;durP1;ratioP1;P2;durP2;ratioP2
3036;SDS011;1528;52.550;13.408;2022-09-04T00:01:41;6.00;;;5.70;;
3036;SDS011;1528;52.550;13.408;2022-09-04T00:04:34;4.90;;;4.53;;
3036;SDS011;1528;52.550;13.408;2022-09-04T00:07:26;4.70;;;4.50;;
3036;SDS011;1528;52.550;13.408;2022-09-04T00:10:18;4.80;;;4.50;;
3036;SDS011;1528;52.550;13.408;2022-09-04T00:13:14;5.80;;;5.40;;
3036;SDS011;1528;52.550;13.408;2022-09-04T00:16:07;4.67;;;4.37;;
3036;SDS011;1528;52.550;13.408;2022-09-04T00:18:55;5.90;;;5.50;;
3036;SDS011;1528;52.550;13.408;2022-09-04T00:21:47;5.97;;;5.57;;
3036;SDS011;1528;52.550;13.408;2022-09-04T00:24:37;5.93;;;5.53;;
3036;SDS011;1528;52.550;13.408;2022-09-04T00:27:27;7.27;;;5.90;;
3036;SDS011;1528;52.550;13.408;2022-09-04T00:30:18;5.00;;;4.80;;
3036;SDS011;1528;52.550;13.408;2022-09-04T00:33:07;6.40;;;6.10;;
3036;SDS011;1528;52.550;13.408;2022-09-04T00:35:57;6.60;;;6.20;;
3036;SDS011;1528;52.550;13.408;2022-09-04T00:38:46;5.23;;;4.90;;
3036;SDS011;1528;52.550;13.408;2022-09-04T00:41:40;5.00;;;4.60;;
3036;SDS011;1528;52.550;13.408;2022-09-04T00:44:46;6.53;;;6.23;;
3036;SDS011;1528;52.550;13.408;2022-09-04T00:54:09;5.87;;;5.57;;
3036;SDS011;1528;52.550;13.408;2022-09-04T00:57:39;4.97;;;4.73;;
3036;SDS011;1528;52.550;13.408;2022-09-04T01:00:35;5.43;;;5.13;;
3036;SDS011;1528;52.550;13.408;2022-09-04T01:03:29;5.77;;;5.47;;
3036;SDS011;1528;52.550;13.408;2022-09-04T01:06:28;7.20;;;5.47;;
3036;SDS011;1528;52.550;13.408;2022-09-04T01:09:22;8.13;;;5.27;;
3036;SDS011;1528;52.550;13.408;2022-09-04T01:12:18;4.70;;;4.30;;
3036;SDS011;1528;52.550;13.408;2022-09-04T01:15:14;5.27;;;4.73;;
3036;SDS011;1528;52.550;13.408;2022-09-04T01:18:06;5.70;;;4.97;;
3036;SDS011;1528;52.550;13.408;2022-09-04T01:21:02;5.30;;;4.97;;
3036;SDS011;1528;52.550;13.408;2022-09-04T01:24:21;4.97;;;4.67;;
3036;SDS011;1528;52.550;13.408;2022-09-04T01:27:18;4.80;;;4.50;;
3036;SDS011;1528;52.550;13.408;2022-09-04T01:30:08;4.43;;;4.00;;
3036;SDS011;1528;52.550;13.408;2022-09-04T01:32:57;5.00;;;4.70;;
3036;SDS011;1528;52.550;13.408;2022-09-04T01:35:49;4.80;;;4.60;;
3036;SDS011;1528;52.550;13.408;2022-09-04T01:38:42;5.17;;;4.97;;
3036;SDS011;1528;52.550;13.408;2022-09-04T01:41:34;5.23;;;4.93;;
3036;SDS011;1528;52.550;13.408;2022-09-04T01:44:26;3.33;;;3.13;;
3036;SDS011;1528;52.550;13.408;2022-09-04T01:47:14;3.70;;;3.50;;
3036;SDS011;1528;52.550;13.408;2022-09-04T01:50:05;4.50;;;4.23;;
3036;SDS011;1528;52.550;13.408;2022-09-04T01:52:56;4.93;;;4.73;;
3036;SDS011;1528;52.550;13.408;2022-09-04T01:59:33;5.20;;;4.90;;
3036;SDS011;1528;52.550;13.408;2022-09-04T02:02:30;5.97;;;5.47;;
3036;SDS011;1528;52.550;13.408;2022-09-04T02:05:26;6.27;;;5.87;;
3036;SDS011;1528;52.550;13.408;2022-09-04T02:08:19;4.63;;;4.23;;
3036;SDS011;1528;52.550;13.408;2022-09-04T02:11:14;5.33;;;5.10;;
3036;SDS011;1528;52.550;13.408;2022-09-04T02:14:09;5.93;;;5.63;;
3036;SDS011;1528;52.550;13.408;2022-09-04T02:17:05;5.17;;;4.67;;
3036;SDS011;1528;52.550;13.408;2022-09-04T02:19:58;5.27;;;4.83;;
3036;SDS011;1528;52.550;13.408;2022-09-04T02:22:53;6.67;;;6.27;;
3036;SDS011;1528;52.550;13.408;2022-09-04T02:25:48;6.67;;;6.13;;
3036;SDS011;1528;52.550;13.408;2022-09-04T02:28:43;6.70;;;6.43;;
3036;SDS011;1528;52.550;13.408;2022-09-04T02:31:39;5.73;;;5.43;;
3036;SDS011;1528;52.550;13.408;2022-09-04T02:34:32;6.17;;;5.77;;
3036;SDS011;1528;52.550;13.408;2022-09-04T02:37:25;5.93;;;5.63;;
3036;SDS011;1528;52.550;13.408;2022-09-04T02:40:17;5.60;;;5.40;;
3036;SDS011;1528;52.550;13.408;2022-09-04T02:43:23;5.70;;;5.50;;
3036;SDS011;1528;52.550;13.408;2022-09-04T02:46:20;7.07;;;6.77;;
3036;SDS011;1528;52.550;13.408;2022-09-04T02:49:13;7.27;;;6.83;;
3036;SDS011;1528;52.550;13.408;2022-09-04T02:52:21;6.93;;;6.63;;
3036;SDS011;1528;52.550;13.408;2022-09-04T02:55:19;6.30;;;5.90;;
3036;SDS011;1528;52.550;13.408;2022-09-04T02:58:15;6.63;;;6.43;;
3036;SDS011;1528;52.550;13.408;2022-09-04T03:01:09;7.17;;;6.87;;
3036;SDS011;1528;52.550;13.408;2022-09-04T03:04:00;6.73;;;6.33;;
3036;SDS011;1528;52.550;13.408;2022-09-04T03:06:50;6.40;;;6.10;;
3036;SDS011;1528;52.550;13.408;2022-09-04T03:09:41;7.27;;;6.93;;
3036;SDS011;1528;52.550;13.408;2022-09-04T03:12:33;5.50;;;5.20;;
3036;SDS011;1528;52.550;13.408;2022-09-04T03:15:24;6.23;;;5.93;;
3036;SDS011;1528;52.550;13.408;2022-09-04T03:18:15;5.83;;;5.53;;
3036;SDS011;1528;52.550;13.408;2022-09-04T03:21:08;5.73;;;5.47;;
3036;SDS011;1528;52.550;13.408;2022-09-04T03:23:57;6.20;;;5.60;;
3036;SDS011;1528;52.550;13.408;2022-09-04T03:26:50;6.17;;;5.87;;
3036;SDS011;1528;52.550;13.408;2022-09-04T03:29:40;5.43;;;5.23;;
3036;SDS011;1528;52.550;13.408;2022-09-04T03:32:36;5.60;;;5.20;;
3036;SDS011;1528;52.550;13.408;2022-09-04T03:35:29;5.90;;;5.40;;
3036;SDS011;1528;52.550;13.408;2022-09-04T03:38:23;5.70;;;5.40;;
3036;SDS011;1528;52.550;13.408;2022-09-04T03:41:15;6.40;;;6.00;;
3036;SDS011;1528;52.550;13.408;2022-09-04T03:44:16;5.70;;;5.30;;
3036;SDS011;1528;52.550;13.408;2022-09-04T03:47:14;6.10;;;5.80;;
3036;SDS011;1528;52.550;13.408;2022-09-04T03:50:12;4.30;;;4.10;;
3036;SDS011;1528;52.550;13.408;2022-09-04T03:53:05;4.50;;;4.20;;
3036;SDS011;1528;52.550;13.408;2022-09-04T03:56:07;4.50;;;4.30;;
3036;SDS011;1528;52.550;13.408;2022-09-04T03:59:20;4.07;;;3.77;;
3036;SDS011;1528;52.550;13.408;2022-09-04T04:02:23;4.80;;;4.50;;
3036;SDS011;1528;52.550;13.408;2022-09-04T04:05:24;4.40;;;4.10;;
3036;SDS011;1528;52.550;13.408;2022-09-04T04:08:27;4.23;;;4.03;;
3036;SDS011;1528;52.550;13.408;2022-09-04T04:11:27;4.37;;;3.97;;
3036;SDS011;1528;52.550;13.408;2022-09-04T04:14:27;4.10;;;3.90;;
3036;SDS011;1528;52.550;13.408;2022-09-04T04:17:32;4.33;;;4.13;;
3036;SDS011;1528;52.550;13.408;2022-09-04T04:20:34;4.67;;;4.20;;
3036;SDS011;1528;52.550;13.408;2022-09-04T04:23:28;4.60;;;4.30;;
3036;SDS011;1528;52.550;13.408;2022-09-04T04:26:52;4.73;;;4.53;;
3036;SDS011;1528;52.550;13.408;2022-09-04T04:29:57;4.40;;;4.20;;
3036;SDS011;1528;52.550;13.408;2022-09-04T04:32:53;4.07;;;3.77;;
3036;SDS011;1528;52.550;13.408;2022-09-04T04:35:52;4.30;;;4.00;;
3036;SDS011;1528;52.550;13.408;2022-09-04T04:38:49;4.30;;;4.00;;
3036;SDS011;1528;52.550;13.408;2022-09-04T04:42:04;4.70;;;4.40;;
3036;SDS011;1528;52.550;13.408;2022-09-04T04:45:10;4.20;;;4.00;;
3036;SDS011;1528;52.550;13.408;2022-09-04T04:51:52;4.57;;;4.30;;
3036;SDS011;1528;52.550;13.408;2022-09-04T05:01:28;5.10;;;4.80;;
3036;SDS011;1528;52.550;13.408;2022-09-04T05:04:27;5.57;;;5.20;;
3036;SDS011;1528;52.550;13.408;2022-09-04T05:07:25;4.73;;;4.50;;
3036;SDS011;1528;52.550;13.408;2022-09-04T05:10:19;4.60;;;4.40;;
3036;SDS011;1528;52.550;13.408;2022-09-04T05:13:14;4.57;;;4.30;;
3036;SDS011;1528;52.550;13.408;2022-09-04T05:16:08;6.77;;;6.30;;
3036;SDS011;1528;52.550;13.408;2022-09-04T05:19:01;7.90;;;7.60;;
3036;SDS011;1528;52.550;13.408;2022-09-04T05:21:54;4.30;;;4.10;;
3036;SDS011;1528;52.550;13.408;2022-09-04T05:24:50;6.50;;;6.20;;
3036;SDS011;1528;52.550;13.408;2022-09-04T05:27:48;7.40;;;7.00;;
3036;SDS011;1528;52.550;13.408;2022-09-04T05:30:42;5.77;;;5.47;;
3036;SDS011;1528;52.550;13.408;2022-09-04T05:33:35;6.10;;;5.70;;
3036;SDS011;1528;52.550;13.408;2022-09-04T05:36:28;6.30;;;6.00;;
3036;SDS011;1528;52.550;13.408;2022-09-04T05:39:26;5.70;;;5.50;;
3036;SDS011;1528;52.550;13.408;2022-09-04T05:45:36;5.93;;;5.63;;
3036;SDS011;1528;52.550;13.408;2022-09-04T05:48:36;6.43;;;5.93;;
3036;SDS011;1528;52.550;13.408;2022-09-04T05:51:32;5.47;;;5.20;;
3036;SDS011;1528;52.550;13.408;2022-09-04T05:54:43;5.40;;;5.10;;
3036;SDS011;1528;52.550;13.408;2022-09-04T05:57:51;5.83;;;5.43;;
3036;SDS011;1528;52.550;13.408;2022-09-04T06:00:50;6.33;;;6.03;;
3036;SDS011;1528;52.550;13.408;2022-09-04T06:03:49;6.13;;;5.63;;
3036;SDS011;1528;52.550;13.408;2022-09-04T06:06:57;5.47;;;5.27;;
3036;SDS011;1528;52.550;13.408;2022-09-04T06:09:57;6.60;;;6.30;;
3036;SDS011;1528;52.550;13.408;2022-09-04T06:12:51;6.70;;;6.30;;
3036;SDS011;1528;52.550;13.408;2022-09-04T06:15:55;7.43;;;7.03;;
3036;SDS011;1528;52.550;13.408;2022-09-04T06:18:59;5.83;;;5.53;;
3036;SDS011;1528;52.550;13.408;2022-09-04T06:22:08;4.97;;;4.70;;
3036;SDS011;1528;52.550;13.408;2022-09-04T06:25:12;6.20;;;5.90;;
3036;SDS011;1528;52.550;13.408;2022-09-04T06:28:25;6.80;;;6.40;;
3036;SDS011;1528;52.550;13.408;2022-09-04T06:38:00;6.10;;;5.80;;
3036;SDS011;1528;52.550;13.408;2022-09-04T06:40:57;6.77;;;6.20;;
3036;SDS011;1528;52.550;13.408;2022-09-04T06:43:56;7.00;;;6.70;;
3036;SDS011;1528;52.550;13.408;2022-09-04T06:46:48;7.07;;;6.50;;
3036;SDS011;1528;52.550;13.408;2022-09-04T06:49:43;6.70;;;6.40;;
3036;SDS011;1528;52.550;13.408;2022-09-04T06:52:45;8.20;;;7.70;;
3036;SDS011;1528;52.550;13.408;2022-09-04T06:55:41;7.40;;;7.10;;
3036;SDS011;1528;52.550;13.408;2022-09-04T06:58:40;7.53;;;7.13;;
3036;SDS011;1528;52.550;13.408;2022-09-04T07:01:39;7.93;;;7.50;;
3036;SDS011;1528;52.550;13.408;2022-09-04T07:04:39;7.00;;;6.70;;
3036;SDS011;1528;52.550;13.408;2022-09-04T07:07:33;8.30;;;7.80;;
3036;SDS011;1528;52.550;13.408;2022-09-04T07:10:27;9.10;;;8.50;;
3036;SDS011;1528;52.550;13.408;2022-09-04T07:16:27;7.87;;;7.47;;
3036;SDS011;1528;52.550;13.408;2022-09-04T07:25:42;5.50;;;5.20;;
3036;SDS011;1528;52.550;13.408;2022-09-04T07:28:38;8.00;;;7.60;;
3036;SDS011;1528;52.550;13.408;2022-09-04T07:31:35;7.27;;;6.87;;
3036;SDS011;1528;52.550;13.408;2022-09-04T07:34:30;8.30;;;7.80;;
3036;SDS011;1528;52.550;13.408;2022-09-04T07:37:25;9.00;;;8.37;;
3036;SDS011;1528;52.550;13.408;2022-09-04T07:40:16;8.90;;;8.40;;
3036;SDS011;1528;52.550;13.408;2022-09-04T07:43:06;10.00;;;9.50;;
3036;SDS011;1528;52.550;13.408;2022-09-04T07:46:01;8.23;;;7.77;;
3036;SDS011;1528;52.550;13.408;2022-09-04T07:48:53;9.13;;;8.50;;
3036;SDS011;1528;52.550;13.408;2022-09-04T07:51:53;8.07;;;7.77;;
3036;SDS011;1528;52.550;13.408;2022-09-04T07:54:46;8.70;;;8.03;;
3036;SDS011;1528;52.550;13.408;2022-09-04T07:57:57;7.57;;;7.10;;
3036;SDS011;1528;52.550;13.408;2022-09-04T08:04:45;8.83;;;8.33;;
3036;SDS011;1528;52.550;13.408;2022-09-04T08:07:47;9.30;;;8.80;;
3036;SDS011;1528;52.550;13.408;2022-09-04T08:10:55;8.23;;;7.93;;
3036;SDS011;1528;52.550;13.408;2022-09-04T08:14:03;8.40;;;8.00;;
3036;SDS011;1528;52.550;13.408;2022-09-04T08:17:21;9.20;;;8.50;;
3036;SDS011;1528;52.550;13.408;2022-09-04T08:20:23;7.97;;;7.47;;
3036;SDS011;1528;52.550;13.408;2022-09-04T08:23:29;8.77;;;8.17;;
3036;SDS011;1528;52.550;13.408;2022-09-04T08:26:27;8.80;;;8.10;;
3036;SDS011;1528;52.550;13.408;2022-09-04T08:29:25;9.60;;;9.07;;
3036;SDS011;1528;52.550;13.408;2022-09-04T08:32:36;9.43;;;8.90;;
3036;SDS011;1528;52.550;13.408;2022-09-04T08:35:41;7.37;;;6.80;;
3036;SDS011;1528;52.550;13.408;2022-09-04T08:45:19;6.77;;;6.37;;
3036;SDS011;1528;52.550;13.408;2022-09-04T08:48:32;9.57;;;8.87;;
3036;SDS011;1528;52.550;13.408;2022-09-04T08:52:09;6.63;;;6.23;;
3036;SDS011;1528;52.550;13.408;2022-09-04T08:55:16;7.90;;;7.40;;
3036;SDS011;1528;52.550;13.408;2022-09-04T09:02:17;8.10;;;7.60;;
3036;SDS011;1528;52.550;13.408;2022-09-04T09:05:31;8.20;;;7.80;;
3036;SDS011;1528;52.550;13.408;2022-09-04T09:19:09;7.20;;;6.77;;
3036;SDS011;1528;52.550;13.408;2022-09-04T09:22:13;7.60;;;7.10;;
3036;SDS011;1528;52.550;13.408;2022-09-04T09:25:21;8.30;;;7.70;;
3036;SDS011;1528;52.550;13.408;2022-09-04T09:31:42;7.47;;;7.03;;
3036;SDS011;1528;52.550;13.408;2022-09-04T09:38:29;7.10;;;6.70;;
3036;SDS011;1528;52.550;13.408;2022-09-04T09:45:24;6.77;;;6.37;;
3036;SDS011;1528;52.550;13.408;2022-09-04T09:51:40;7.50;;;7.03;;
3036;SDS011;1528;52.550;13.408;2022-09-04T09:58:07;6.80;;;6.40;;
3036;SDS011;1528;52.550;13.408;2022-09-04T10:01:20;7.80;;;7.30;;
3036;SDS011;1528;52.550;13.408;2022-09-04T10:11:00;6.50;;;6.10;;
3036;SDS011;1528;52.550;13.408;2022-09-04T10:21:05;6.70;;;6.30;;
3036;SDS011;1528;52.550;13.408;2022-09-04T10:27:24;6.20;;;5.80;;
3036;SDS011;1528;52.550;13.408;2022-09-04T10:30:33;7.73;;;7.13;;
3036;SDS011;1528;52.550;13.408;2022-09-04T10:33:54;12.83;;;11.93;;
3036;SDS011;1528;52.550;13.408;2022-09-04T10:36:57;11.90;;;11.10;;
3036;SDS011;1528;52.550;13.408;2022-09-04T10:39:58;9.77;;;9.07;;
3036;SDS011;1528;52.550;13.408;2022-09-04T10:43:24;9.20;;;8.33;;
3036;SDS011;1528;52.550;13.408;2022-09-04T10:46:23;8.03;;;7.43;;
3036;SDS011;1528;52.550;13.408;2022-09-04T10:49:14;9.80;;;9.20;;
3036;SDS011;1528;52.550;13.408;2022-09-04T10:52:27;10.60;;;9.63;;
3036;SDS011;1528;52.550;13.408;2022-09-04T10:55:39;7.90;;;7.50;;
3036;SDS011;1528;52.550;13.408;2022-09-04T10:58:51;8.30;;;7.70;;
3036;SDS011;1528;52.550;13.408;2022-09-04T11:05:23;9.37;;;8.87;;
3036;SDS011;1528;52.550;13.408;2022-09-04T11:11:42;9.23;;;8.63;;
3036;SDS011;1528;52.550;13.408;2022-09-04T11:18:44;9.30;;;8.80;;
3036;SDS011;1528;52.550;13.408;2022-09-04T11:22:17;8.73;;;8.40;;
3036;SDS011;1528;52.550;13.408;2022-09-04T11:25:21;9.53;;;9.03;;
3036;SDS011;1528;52.550;13.408;2022-09-04T11:28:40;12.30;;;11.50;;
3036;SDS011;1528;52.550;13.408;2022-09-04T11:38:13;8.77;;;8.20;;
3036;SDS011;1528;52.550;13.408;2022-09-04T11:41:24;10.20;;;9.70;;
3036;SDS011;1528;52.550;13.408;2022-09-04T11:51:26;11.20;;;10.63;;
3036;SDS011;1528;52.550;13.408;2022-09-04T11:54:30;11.97;;;11.47;;
3036;SDS011;1528;52.550;13.408;2022-09-04T11:57:45;12.40;;;11.73;;
3036;SDS011;1528;52.550;13.408;2022-09-04T12:00:46;13.40;;;12.93;;
3036;SDS011;1528;52.550;13.408;2022-09-04T12:03:47;11.10;;;10.40;;
3036;SDS011;1528;52.550;13.408;2022-09-04T12:06:57;13.07;;;12.53;;
3036;SDS011;1528;52.550;13.408;2022-09-04T12:10:04;14.10;;;13.53;;
3036;SDS011;1528;52.550;13.408;2022-09-04T12:16:52;9.93;;;9.50;;
3036;SDS011;1528;52.550;13.408;2022-09-04T12:26:41;15.63;;;14.97;;
3036;SDS011;1528;52.550;13.408;2022-09-04T12:29:46;11.90;;;11.40;;
3036;SDS011;1528;52.550;13.408;2022-09-04T12:32:59;9.40;;;8.90;;
3036;SDS011;1528;52.550;13.408;2022-09-04T12:36:15;13.03;;;12.57;;
3036;SDS011;1528;52.550;13.408;2022-09-04T12:42:38;12.80;;;12.40;;
3036;SDS011;1528;52.550;13.408;2022-09-04T12:45:31;12.23;;;11.50;;
3036;SDS011;1528;52.550;13.408;2022-09-04T12:48:27;8.50;;;8.20;;
3036;SDS011;1528;52.550;13.408;2022-09-04T12:51:21;11.47;;;11.07;;
3036;SDS011;1528;52.550;13.408;2022-09-04T12:54:11;10.60;;;10.20;;
3036;SDS011;1528;52.550;13.408;2022-09-04T12:57:11;10.60;;;10.20;;
3036;SDS011;1528;52.550;13.408;2022-09-04T13:00:09;11.80;;;11.30;;
3036;SDS011;1528;52.550;13.408;2022-09-04T13:02:59;19.70;;;18.90;;
3036;SDS011;1528;52.550;13.408;2022-09-04T13:06:01;11.80;;;11.30;;
3036;SDS011;1528;52.550;13.408;2022-09-04T13:09:02;10.50;;;9.87;;
3036;SDS011;1528;52.550;13.408;2022-09-04T13:11:58;9.57;;;8.77;;
3036;SDS011;1528;52.550;13.408;2022-09-04T13:14:59;8.33;;;7.93;;
3036;SDS011;1528;52.550;13.408;2022-09-04T13:17:56;7.70;;;7.40;;
3036;SDS011;1528;52.550;13.408;2022-09-04T13:21:04;8.10;;;7.50;;
3036;SDS011;1528;52.550;13.408;2022-09-04T13:24:02;6.20;;;5.90;;
3036;SDS011;1528;52.550;13.408;2022-09-04T13:26:58;6.60;;;6.20;;
3036;SDS011;1528;52.550;13.408;2022-09-04T13:29:55;7.60;;;7.20;;
3036;SDS011;1528;52.550;13.408;2022-09-04T13:32:54;6.90;;;6.50;;
3036;SDS011;1528;52.550;13.408;2022-09-04T13:35:51;7.10;;;6.73;;
3036;SDS011;1528;52.550;13.408;2022-09-04T13:38:52;6.53;;;6.13;;
3036;SDS011;1528;52.550;13.408;2022-09-04T13:41:54;7.27;;;6.97;;
3036;SDS011;1528;52.550;13.408;2022-09-04T13:44:53;7.10;;;6.63;;
3036;SDS011;1528;52.550;13.408;2022-09-04T13:47:47;8.93;;;8.43;;
3036;SDS011;1528;52.550;13.408;2022-09-04T13:50:40;7.43;;;7.13;;
3036;SDS011;1528;52.550;13.408;2022-09-04T13:53:31;7.83;;;7.43;;
3036;SDS011;1528;52.550;13.408;2022-09-04T13:56:24;6.00;;;5.80;;
3036;SDS011;1528;52.550;13.408;2022-09-04T13:59:17;5.83;;;5.23;;
3036;SDS011;1528;52.550;13.408;2022-09-04T14:02:06;5.60;;;5.30;;
3036;SDS011;1528;52.550;13.408;2022-09-04T14:04:57;5.30;;;5.00;;
3036;SDS011;1528;52.550;13.408;2022-09-04T14:07:56;7.20;;;6.90;;
3036;SDS011;1528;52.550;13.408;2022-09-04T14:14:15;7.80;;;7.20;;
3036;SDS011;1528;52.550;13.408;2022-09-04T14:17:26;7.33;;;6.83;;
3036;SDS011;1528;52.550;13.408;2022-09-04T14:20:21;6.40;;;6.10;;
3036;SDS011;1528;52.550;13.408;2022-09-04T14:23:12;5.60;;;5.30;;
3036;SDS011;1528;52.550;13.408;2022-09-04T14:26:07;6.00;;;5.70;;
3036;SDS011;1528;52.550;13.408;2022-09-04T14:29:00;6.40;;;6.00;;
3036;SDS011;1528;52.550;13.408;2022-09-04T14:31:53;7.07;;;6.57;;
3036;SDS011;1528;52.550;13.408;2022-09-04T14:34:55;6.80;;;6.50;;
3036;SDS011;1528;52.550;13.408;2022-09-04T14:38:00;7.20;;;6.60;;
3036;SDS011;1528;52.550;13.408;2022-09-04T14:41:13;9.40;;;8.70;;
3036;SDS011;1528;52.550;13.408;2022-09-04T14:44:14;7.57;;;7.27;;
3036;SDS011;1528;52.550;13.408;2022-09-04T14:47:12;6.30;;;6.00;;
3036;SDS011;1528;52.550;13.408;2022-09-04T14:50:08;8.10;;;7.70;;
3036;SDS011;1528;52.550;13.408;2022-09-04T14:52:56;8.60;;;8.30;;
3036;SDS011;1528;52.550;13.408;2022-09-04T14:56:00;8.40;;;8.03;;
3036;SDS011;1528;52.550;13.408;2022-09-04T14:59:11;7.87;;;7.47;;
3036;SDS011;1528;52.550;13.408;2022-09-04T15:02:03;8.00;;;7.60;;
3036;SDS011;1528;52.550;13.408;2022-09-04T15:05:01;11.83;;;11.30;;
3036;SDS011;1528;52.550;13.408;2022-09-04T15:07:54;10.53;;;10.03;;
3036;SDS011;1528;52.550;13.408;2022-09-04T15:10:43;8.93;;;8.63;;
3036;SDS011;1528;52.550;13.408;2022-09-04T15:13:37;10.90;;;10.20;;
3036;SDS011;1528;52.550;13.408;2022-09-04T15:16:39;7.83;;;7.33;;
3036;SDS011;1528;52.550;13.408;2022-09-04T15:19:37;6.90;;;6.60;;
3036;SDS011;1528;52.550;13.408;2022-09-04T15:22:31;9.40;;;9.00;;
3036;SDS011;1528;52.550;13.408;2022-09-04T15:25:30;6.93;;;6.57;;
3036;SDS011;1528;52.550;13.408;2022-09-04T15:28:25;8.70;;;8.30;;
3036;SDS011;1528;52.550;13.408;2022-09-04T15:31:18;10.30;;;9.90;;
3036;SDS011;1528;52.550;13.408;2022-09-04T15:34:17;7.10;;;6.80;;
3036;SDS011;1528;52.550;13.408;2022-09-04T15:37:09;7.97;;;7.67;;
3036;SDS011;1528;52.550;13.408;2022-09-04T15:39:59;8.03;;;7.53;;
3036;SDS011;1528;52.550;13.408;2022-09-04T15:42:56;8.57;;;8.17;;
3036;SDS011;1528;52.550;13.408;2022-09-04T15:45:52;8.53;;;8.07;;
3036;SDS011;1528;52.550;13.408;2022-09-04T15:48:46;7.07;;;6.67;;
3036;SDS011;1528;52.550;13.408;2022-09-04T15:51:37;7.27;;;6.83;;
3036;SDS011;1528;52.550;13.408;2022-09-04T15:54:28;7.60;;;7.20;;
3036;SDS011;1528;52.550;13.408;2022-09-04T15:57:40;7.03;;;6.53;;
3036;SDS011;1528;52.550;13.408;2022-09-04T16:00:33;5.60;;;5.20;;
3036;SDS011;1528;52.550;13.408;2022-09-04T16:03:22;5.87;;;5.57;;
3036;SDS011;1528;52.550;13.408;2022-09-04T16:06:16;5.70;;;5.40;;
3036;SDS011;1528;52.550;13.408;2022-09-04T16:09:06;9.50;;;6.30;;
3036;SDS011;1528;52.550;13.408;2022-09-04T16:12:02;6.33;;;5.93;;
3036;SDS011;1528;52.550;13.408;2022-09-04T16:14:54;5.80;;;5.50;;
3036;SDS011;1528;52.550;13.408;2022-09-04T16:17:45;7.17;;;6.57;;
3036;SDS011;1528;52.550;13.408;2022-09-04T16:20:35;9.40;;;8.80;;
3036;SDS011;1528;52.550;13.408;2022-09-04T16:23:31;7.10;;;6.60;;
3036;SDS011;1528;52.550;13.408;2022-09-04T16:26:22;9.97;;;9.17;;
3036;SDS011;1528;52.550;13.408;2022-09-04T16:29:14;6.83;;;6.33;;
3036;SDS011;1528;52.550;13.408;2022-09-04T16:32:11;6.33;;;5.93;;
3036;SDS011;1528;52.550;13.408;2022-09-04T16:35:04;6.30;;;5.90;;
3036;SDS011;1528;52.550;13.408;2022-09-04T16:37:56;6.23;;;5.63;;
3036;SDS011;1528;52.550;13.408;2022-09-04T16:40:50;6.40;;;5.87;;
3036;SDS011;1528;52.550;13.408;2022-09-04T16:43:40;6.50;;;6.10;;
3036;SDS011;1528;52.550;13.408;2022-09-04T16:47:04;7.23;;;6.70;;
3036;SDS011;1528;52.550;13.408;2022-09-04T16:49:54;8.80;;;8.40;;
3036;SDS011;1528;52.550;13.408;2022-09-04T16:52:51;8.07;;;7.57;;
3036;SDS011;1528;52.550;13.408;2022-09-04T16:55:46;8.70;;;8.20;;
3036;SDS011;1528;52.550;13.408;2022-09-04T16:58:45;8.57;;;8.13;;
3036;SDS011;1528;52.550;13.408;2022-09-04T17:01:39;8.77;;;8.07;;
3036;SDS011;1528;52.550;13.408;2022-09-04T17:04:37;6.10;;;5.70;;
3036;SDS011;1528;52.550;13.408;2022-09-04T17:07:28;6.03;;;5.63;;
3036;SDS011;1528;52.550;13.408;2022-09-04T17:10:24;6.43;;;5.93;;
3036;SDS011;1528;52.550;13.408;2022-09-04T17:13:18;6.13;;;5.63;;
3036;SDS011;1528;52.550;13.408;2022-09-04T17:16:11;6.37;;;5.87;;
3036;SDS011;1528;52.550;13.408;2022-09-04T17:19:00;6.50;;;6.10;;
3036;SDS011;1528;52.550;13.408;2022-09-04T17:21:58;6.10;;;5.67;;
3036;SDS011;1528;52.550;13.408;2022-09-04T17:25:17;6.23;;;5.77;;
3036;SDS011;1528;52.550;13.408;2022-09-04T17:28:22;6.90;;;5.57;;
3036;SDS011;1528;52.550;13.408;2022-09-04T17:31:19;6.07;;;5.67;;
3036;SDS011;1528;52.550;13.408;2022-09-04T17:34:13;6.67;;;6.17;;
3036;SDS011;1528;52.550;13.408;2022-09-04T17:37:06;7.37;;;6.77;;
3036;SDS011;1528;52.550;13.408;2022-09-04T17:39:58;7.20;;;6.43;;
3036;SDS011;1528;52.550;13.408;2022-09-04T17:42:47;7.37;;;6.97;;
3036;SDS011;1528;52.550;13.408;2022-09-04T17:45:45;5.90;;;5.40;;
3036;SDS011;1528;52.550;13.408;2022-09-04T17:48:37;6.63;;;6.13;;
3036;SDS011;1528;52.550;13.408;2022-09-04T17:51:26;6.83;;;6.33;;
3036;SDS011;1528;52.550;13.408;2022-09-04T17:54:14;6.93;;;6.50;;
3036;SDS011;1528;52.550;13.408;2022-09-04T17:57:02;6.97;;;6.47;;
3036;SDS011;1528;52.550;13.408;2022-09-04T17:59:52;6.20;;;5.80;;
3036;SDS011;1528;52.550;13.408;2022-09-04T18:02:48;6.70;;;6.20;;
3036;SDS011;1528;52.550;13.408;2022-09-04T18:05:41;7.07;;;6.60;;
3036;SDS011;1528;52.550;13.408;2022-09-04T18:08:31;6.67;;;6.27;;
3036;SDS011;1528;52.550;13.408;2022-09-04T18:11:24;6.83;;;6.33;;
3036;SDS011;1528;52.550;13.408;2022-09-04T18:14:16;7.60;;;7.20;;
3036;SDS011;1528;52.550;13.408;2022-09-04T18:17:09;6.87;;;6.47;;
3036;SDS011;1528;52.550;13.408;2022-09-04T18:20:04;7.40;;;6.80;;
3036;SDS011;1528;52.550;13.408;2022-09-04T18:23:14;7.27;;;6.77;;
3036;SDS011;1528;52.550;13.408;2022-09-04T18:26:26;7.03;;;6.53;;
3036;SDS011;1528;52.550;13.408;2022-09-04T18:29:29;7.20;;;6.63;;
3036;SDS011;1528;52.550;13.408;2022-09-04T18:32:24;7.20;;;6.70;;
3036;SDS011;1528;52.550;13.408;2022-09-04T18:35:18;7.50;;;6.90;;
3036;SDS011;1528;52.550;13.408;2022-09-04T18:38:09;7.63;;;7.13;;
3036;SDS011;1528;52.550;13.408;2022-09-04T18:41:04;6.30;;;5.90;;
3036;SDS011;1528;52.550;13.408;2022-09-04T18:43:51;7.07;;;6.67;;
3036;SDS011;1528;52.550;13.408;2022-09-04T18:46:41;6.43;;;5.93;;
3036;SDS011;1528;52.550;13.408;2022-09-04T18:49:27;7.33;;;6.70;;
3036;SDS011;1528;52.550;13.408;2022-09-04T18:52:16;7.03;;;6.53;;
3036;SDS011;1528;52.550;13.408;2022-09-04T18:55:09;7.27;;;6.77;;
3036;SDS011;1528;52.550;13.408;2022-09-04T18:58:01;7.20;;;6.57;;
3036;SDS011;1528;52.550;13.408;2022-09-04T19:01:12;6.73;;;6.33;;
3036;SDS011;1528;52.550;13.408;2022-09-04T19:04:09;7.30;;;6.80;;
3036;SDS011;1528;52.550;13.408;2022-09-04T19:07:22;7.17;;;6.77;;
3036;SDS011;1528;52.550;13.408;2022-09-04T19:10:18;7.50;;;6.63;;
3036;SDS011;1528;52.550;13.408;2022-09-04T19:13:08;7.07;;;6.60;;
3036;SDS011;1528;52.550;13.408;2022-09-04T19:15:58;7.73;;;7.10;;
3036;SDS011;1528;52.550;13.408;2022-09-04T19:18:48;6.60;;;6.10;;
3036;SDS011;1528;52.550;13.408;2022-09-04T19:21:41;8.60;;;7.33;;
3036;SDS011;1528;52.550;13.408;2022-09-04T19:24:33;7.00;;;6.50;;
3036;SDS011;1528;52.550;13.408;2022-09-04T19:27:26;8.03;;;7.40;;
3036;SDS011;1528;52.550;13.408;2022-09-04T19:30:16;7.37;;;6.47;;
3036;SDS011;1528;52.550;13.408;2022-09-04T19:33:05;7.43;;;6.93;;
3036;SDS011;1528;52.550;13.408;2022-09-04T19:35:57;7.97;;;7.43;;
3036;SDS011;1528;52.550;13.408;2022-09-04T19:38:47;7.20;;;6.70;;
3036;SDS011;1528;52.550;13.408;2022-09-04T19:41:42;6.77;;;6.27;;
3036;SDS011;1528;52.550;13.408;2022-09-04T19:44:31;8.43;;;7.83;;
3036;SDS011;1528;52.550;13.408;2022-09-04T19:47:29;7.20;;;6.67;;
3036;SDS011;1528;52.550;13.408;2022-09-04T19:50:29;7.07;;;6.63;;
3036;SDS011;1528;52.550;13.408;2022-09-04T19:53:29;7.03;;;6.53;;
3036;SDS011;1528;52.550;13.408;2022-09-04T19:56:22;7.63;;;6.93;;
3036;SDS011;1528;52.550;13.408;2022-09-04T19:59:16;8.37;;;7.30;;
3036;SDS011;1528;52.550;13.408;2022-09-04T20:02:26;7.03;;;6.50;;
3036;SDS011;1528;52.550;13.408;2022-09-04T20:05:20;7.27;;;6.63;;
3036;SDS011;1528;52.550;13.408;2022-09-04T20:08:10;6.87;;;6.37;;
3036;SDS011;1528;52.550;13.408;2022-09-04T20:11:02;6.73;;;6.33;;
3036;SDS011;1528;52.550;13.408;2022-09-04T20:13:53;7.30;;;6.70;;
3036;SDS011;1528;52.550;13.408;2022-09-04T20:16:44;7.80;;;7.20;;
3036;SDS011;1528;52.550;13.408;2022-09-04T20:19:39;6.93;;;6.33;;
3036;SDS011;1528;52.550;13.408;2022-09-04T20:22:31;7.33;;;6.60;;
3036;SDS011;1528;52.550;13.408;2022-09-04T20:25:26;7.47;;;6.87;;
3036;SDS011;1528;52.550;13.408;2022-09-04T20:28:21;7.70;;;7.20;;